Flight Track Log - Related Links

Times and Time Zones

All times are in EDT time to prevent confusion due to time zone crossing. See the N100WX flight status page for this flight to view local times or setup timezone preferences in your user account.

Time Position Orientation Groundspeed Altitude Reporting Facility
EDT Latitude Longitude Course Direction KTS MPH feet Rate Location/Type
Sat 09:15:20 AM 42.3428 -71.3194 143° Southeast 254 292 11,000  Level Boston Center
Sat 09:16:20 AM 42.2942 -71.2583 137° Southeast 260 299 13,000 2,050 Climbing Boston Center
Sat 09:17:20 AM 42.2331 -71.1894 140° Southeast 266 306 15,100 1,250 Climbing Boston Center
Sat 09:18:20 AM 42.1781 -71.1233 138° Southeast 273 314 15,500 182 Climbing Boston Center
Sat 09:19:32 AM 42.1083 -71.0436 140° Southeast 299 344 15,500 45 Level Boston Center
Sat 09:20:00 AM 42.0608 -70.8691 143° Southeast  Level Estimated
Sat 09:20:32 AM 42.0300 -70.9531 139° Southeast 306 352 15,600  Level Boston Center
Sat 09:21:32 AM 41.9644 -70.8739 138° Southeast 306 352 15,500 -50 Descending Boston Center
Sat 09:22:32 AM 41.9008 -70.8028 140° Southeast 306 352 15,500 -800 Level Boston Center
Sat 09:23:32 AM 41.8331 -70.7236 139° Southeast 312 359 13,900 -1,600 Descending Boston Center
Sat 09:24:32 AM 41.7672 -70.6531 141° Southeast 312 359 12,300 -1,600 Descending Boston Center
Sat 09:25:32 AM 41.7078 -70.5797 137° Southeast 301 346 10,700 -1,550 Descending Boston Center
Sat 09:26:32 AM 41.6442 -70.5094 140° Southeast 301 346 9,200 -1,500 Descending Boston Center
Sat 09:27:32 AM 41.5867 -70.4444 140° Southeast 289 333 7,700 -1,300 Descending Boston Center
Sat 09:28:32 AM 41.5314 -70.3797 139° Southeast 279 321 6,600 -1,250 Descending Boston Center
Sat 09:29:32 AM 41.4886 -70.3311 140° Southeast 267 307 5,200 -1,450 Descending Boston Center
Sat 09:30:32 AM 41.4392 -70.2469 128° Southeast 249 287 3,700 -1,300 Descending Boston Center
Sat 09:31:32 AM 41.4042 -70.1706 121° Southeast 244 281 2,600 -600 Descending Boston Center
Sat 09:32:32 AM 41.3800 -70.0969 114° Southeast 227 261 2,500 -50 Descending Boston Center
Sat 09:33:32 AM 41.3594 -70.0228 110° East 214 246 2,500 -250 Level Boston Center
Sat 09:34:32 AM 41.3108 -69.9889 152° Southeast 184 212 2,000 -800 Descending Boston Center
Sat 09:35:32 AM 41.2844 -70.0256 226° Southwest 127 146 900 -750 Descending Boston Center
Sat 09:36:32 AM 41.2578 -70.0350 195° South 112 129 500 3,300 Descending Boston Center
Sat 09:37:32 AM 41.2267 -70.0417 189° South 112 129 7,500 7,000 Climbing Boston Center
Sat 09:39:00 AM 41.2500 -70.0500 339° North  Level FlightAware Approximate
Sat 09:46:00 AM 41.2531 -70.0603 339° North  Level Estimated
Sat 09:47:00 AM 41.2531 -70.0603 339° North  Level Estimated
Sat 09:48:00 AM 41.2531 -70.0603 339° North  Level Estimated
Sat 09:49:00 AM 41.2531 -70.0603 339° North  Level Estimated
Sat 09:50:00 AM 41.2531 -70.0603 339° North  Level Estimated
Sat 09:51:00 AM 41.2531 -70.0603 339° North  Level Estimated
Sat 09:52:00 AM 41.2531 -70.0603 339° North  Level Estimated
Sat 09:53:00 AM 41.2531 -70.0603 339° North  Level Estimated
Sat 09:54:00 AM 41.2531 -70.0603 339° North  Level Estimated

Login

Don't have an account? Register now (free) for customized features, flight alerts, and more!